createdAt,value
2019-03-24T00:01:01.024Z,7.30
2019-03-24T00:03:32.408Z,7.30
2019-03-24T00:06:03.873Z,7.20
2019-03-24T00:08:35.285Z,7.10
2019-03-24T00:11:06.861Z,7.10
2019-03-24T00:13:38.245Z,7.20
2019-03-24T00:16:09.600Z,7.10
2019-03-24T00:18:40.992Z,7.10
2019-03-24T00:21:12.468Z,7.10
2019-03-24T00:23:43.884Z,7.10
2019-03-24T00:26:15.268Z,7.10
2019-03-24T00:28:46.662Z,7.20
2019-03-24T00:31:18.151Z,7.20
2019-03-24T00:33:49.557Z,7.10
2019-03-24T00:36:20.942Z,7.20
2019-03-24T00:38:52.320Z,7.10
2019-03-24T00:41:23.748Z,7.00
2019-03-24T00:43:55.116Z,7.10
2019-03-24T00:46:26.509Z,7.10
2019-03-24T00:48:57.919Z,7.10
2019-03-24T00:51:29.394Z,7.20
2019-03-24T00:54:00.800Z,7.10
2019-03-24T00:56:32.196Z,6.90
2019-03-24T00:59:03.593Z,6.90
2019-03-24T01:01:34.984Z,6.90
2019-03-24T01:04:06.482Z,7.00
2019-03-24T01:06:37.882Z,6.90
2019-03-24T01:09:09.993Z,6.90
2019-03-24T01:11:41.349Z,6.70
2019-03-24T01:14:12.753Z,6.80
2019-03-24T01:16:44.124Z,6.60
2019-03-24T01:19:15.557Z,6.60
2019-03-24T01:21:47.032Z,6.70
2019-03-24T01:24:18.436Z,6.70
2019-03-24T01:26:49.797Z,6.60
2019-03-24T01:29:21.182Z,6.50
2019-03-24T01:31:52.546Z,6.50
2019-03-24T01:34:23.972Z,6.40
2019-03-24T01:36:55.380Z,6.50
2019-03-24T01:39:26.764Z,6.50
2019-03-24T01:41:58.158Z,6.50
2019-03-24T01:44:29.646Z,6.40
2019-03-24T01:47:01.138Z,6.40
2019-03-24T01:49:32.541Z,6.50
2019-03-24T01:52:04.041Z,6.50
2019-03-24T01:54:35.494Z,6.60
2019-03-24T01:57:06.872Z,6.50
2019-03-24T01:59:38.288Z,6.50
2019-03-24T02:02:09.695Z,6.50
2019-03-24T02:04:42.234Z,6.50
2019-03-24T02:07:13.730Z,6.50
2019-03-24T02:09:45.158Z,6.50
2019-03-24T02:12:16.630Z,6.60
2019-03-24T02:14:48.020Z,6.40
2019-03-24T02:17:19.388Z,6.50
2019-03-24T02:19:51.596Z,6.40
2019-03-24T02:22:22.975Z,6.50
2019-03-24T02:24:54.367Z,6.40
2019-03-24T02:27:25.768Z,6.30
2019-03-24T02:29:57.156Z,6.40
2019-03-24T02:32:28.539Z,6.30
2019-03-24T02:34:59.933Z,6.30
2019-03-24T02:37:31.334Z,6.40
2019-03-24T02:40:02.705Z,6.40
2019-03-24T02:42:34.091Z,6.40
2019-03-24T02:45:05.614Z,6.40
2019-03-24T02:47:39.383Z,6.20
2019-03-24T02:50:11.184Z,6.30
2019-03-24T02:52:42.562Z,6.30
2019-03-24T02:55:14.140Z,6.20
2019-03-24T02:57:45.524Z,6.20
2019-03-24T03:00:17.426Z,6.30
2019-03-24T03:02:48.914Z,6.30
2019-03-24T03:05:20.312Z,6.20
2019-03-24T03:07:51.696Z,6.10
2019-03-24T03:10:23.111Z,6.00
2019-03-24T03:12:54.489Z,6.00
2019-03-24T03:15:25.891Z,5.90
2019-03-24T03:17:57.248Z,5.70
2019-03-24T03:20:28.729Z,5.60
2019-03-24T03:23:00.217Z,5.70
2019-03-24T03:25:31.671Z,5.70
2019-03-24T03:28:03.066Z,5.80
2019-03-24T03:30:34.898Z,5.80
2019-03-24T03:33:08.528Z,5.80
2019-03-24T03:35:39.978Z,5.80
2019-03-24T03:38:11.349Z,5.70
2019-03-24T03:40:42.869Z,5.70
2019-03-24T03:43:14.436Z,5.80
2019-03-24T03:45:45.888Z,5.70
2019-03-24T03:48:18.348Z,5.70
2019-03-24T03:50:49.745Z,5.70
2019-03-24T03:53:21.163Z,5.70
2019-03-24T03:55:52.601Z,5.60
2019-03-24T03:58:23.977Z,5.70
2019-03-24T04:00:55.357Z,5.90
2019-03-24T04:03:26.766Z,5.90
2019-03-24T04:05:58.173Z,6.00
2019-03-24T04:08:29.555Z,6.00
2019-03-24T04:11:00.995Z,6.10
2019-03-24T04:13:32.386Z,6.10
2019-03-24T04:16:03.791Z,6.00
2019-03-24T04:18:35.168Z,6.00
2019-03-24T04:21:06.694Z,6.00
2019-03-24T04:23:38.103Z,6.00
2019-03-24T04:26:09.505Z,6.00
2019-03-24T04:28:40.909Z,6.10
2019-03-24T04:31:12.339Z,6.00
2019-03-24T04:33:43.794Z,6.10
2019-03-24T04:36:15.217Z,6.10
2019-03-24T04:38:46.607Z,6.10
2019-03-24T04:41:17.986Z,6.10
2019-03-24T04:43:49.384Z,6.00
2019-03-24T04:46:20.804Z,6.30
2019-03-24T04:48:52.212Z,6.60
2019-03-24T04:51:23.630Z,7.40
2019-03-24T04:53:54.998Z,8.40
2019-03-24T04:56:26.396Z,9.00
2019-03-24T04:58:57.779Z,9.70
2019-03-24T05:01:29.187Z,10.50
2019-03-24T05:04:00.594Z,11.20
2019-03-24T05:06:32.524Z,12.00
2019-03-24T05:09:05.124Z,12.70
2019-03-24T05:11:36.876Z,13.30
2019-03-24T05:14:09.249Z,13.90
2019-03-24T05:16:40.665Z,14.50
2019-03-24T05:19:12.074Z,14.90
2019-03-24T05:21:43.573Z,15.30
2019-03-24T05:24:14.945Z,15.80
2019-03-24T05:26:46.344Z,16.40
2019-03-24T05:29:17.754Z,16.70
2019-03-24T05:31:49.164Z,17.00
2019-03-24T05:34:20.553Z,17.60
2019-03-24T05:36:51.924Z,18.00
2019-03-24T05:39:23.292Z,18.50
2019-03-24T05:41:54.740Z,18.80
2019-03-24T05:44:26.190Z,19.30
2019-03-24T05:46:57.609Z,19.60
2019-03-24T05:49:29.004Z,20.00
2019-03-24T05:52:00.437Z,20.30
2019-03-24T05:54:31.811Z,20.70
2019-03-24T05:57:03.228Z,20.90
2019-03-24T05:59:34.608Z,21.30
2019-03-24T06:02:06.058Z,21.50
2019-03-24T06:04:37.767Z,21.60
2019-03-24T06:07:09.163Z,22.10
2019-03-24T06:09:40.519Z,22.40
2019-03-24T06:12:12.028Z,22.60
2019-03-24T06:14:44.421Z,22.80
2019-03-24T06:17:15.815Z,23.20
2019-03-24T06:19:47.291Z,23.40
2019-03-24T06:22:18.720Z,23.60
2019-03-24T06:24:50.144Z,23.80
2019-03-24T06:27:21.580Z,24.00
2019-03-24T06:29:52.993Z,24.20
2019-03-24T06:32:24.414Z,24.30
2019-03-24T06:34:55.826Z,24.60
2019-03-24T06:37:27.254Z,24.70
2019-03-24T06:39:58.697Z,24.90
2019-03-24T06:42:30.100Z,25.10
2019-03-24T06:45:01.503Z,25.40
2019-03-24T06:47:32.908Z,25.70
2019-03-24T06:50:04.408Z,25.80
2019-03-24T06:52:35.924Z,25.70
2019-03-24T06:55:07.492Z,25.90
2019-03-24T06:57:39.964Z,26.10
2019-03-24T07:00:12.072Z,26.20
2019-03-24T07:02:43.479Z,26.30
2019-03-24T07:05:15.256Z,26.30
2019-03-24T07:07:46.731Z,26.20
2019-03-24T07:10:18.116Z,26.30
2019-03-24T07:12:51.425Z,26.20
2019-03-24T07:15:22.574Z,26.40
2019-03-24T07:17:53.960Z,26.40
2019-03-24T07:20:25.334Z,26.20
2019-03-24T07:22:56.703Z,26.00
2019-03-24T07:25:28.062Z,25.40
2019-03-24T07:27:59.444Z,24.80
2019-03-24T07:30:30.849Z,24.00
2019-03-24T07:33:02.256Z,23.20
2019-03-24T07:35:33.652Z,22.10
2019-03-24T07:38:05.116Z,21.20
2019-03-24T07:40:36.573Z,20.50
2019-03-24T07:43:08.018Z,19.90
2019-03-24T07:45:39.493Z,19.50
2019-03-24T07:48:18.776Z,19.30
2019-03-24T07:50:43.961Z,19.10
2019-03-24T07:53:15.460Z,19.00
2019-03-24T07:55:47.920Z,18.80
2019-03-24T07:58:19.361Z,18.70
2019-03-24T08:00:50.748Z,18.50
2019-03-24T08:03:22.156Z,18.60
2019-03-24T08:05:53.561Z,18.70
2019-03-24T08:08:24.952Z,18.60
2019-03-24T08:10:56.357Z,18.60
2019-03-24T08:13:27.748Z,18.50
2019-03-24T08:15:59.140Z,18.60
2019-03-24T08:18:30.600Z,18.60
2019-03-24T08:21:01.993Z,18.60
2019-03-24T08:23:33.380Z,18.50
2019-03-24T08:26:05.070Z,18.20
2019-03-24T08:28:36.464Z,18.00
2019-03-24T08:31:07.835Z,17.80
2019-03-24T08:33:39.224Z,17.80
2019-03-24T08:36:10.592Z,17.90
2019-03-24T08:38:42.020Z,17.80
2019-03-24T08:41:13.448Z,17.80
2019-03-24T08:43:45.032Z,17.80
2019-03-24T08:46:16.476Z,17.60
2019-03-24T08:48:47.841Z,17.60
2019-03-24T08:51:19.336Z,17.40
2019-03-24T08:53:50.804Z,17.50
2019-03-24T08:56:22.160Z,17.70
2019-03-24T08:58:53.560Z,17.70
2019-03-24T09:01:24.938Z,17.70
2019-03-24T09:03:56.336Z,17.40
2019-03-24T09:06:27.790Z,17.10
2019-03-24T09:08:59.227Z,17.10
2019-03-24T09:11:31.448Z,17.00
2019-03-24T09:14:03.146Z,16.80
2019-03-24T09:16:34.595Z,16.80
2019-03-24T09:19:06.104Z,16.60
2019-03-24T09:21:37.472Z,16.60
2019-03-24T09:24:08.902Z,16.60
2019-03-24T09:26:40.308Z,16.60
2019-03-24T09:29:11.660Z,16.60
2019-03-24T09:31:43.079Z,16.50
2019-03-24T09:34:14.492Z,16.50
2019-03-24T09:36:45.903Z,16.30
2019-03-24T09:39:17.332Z,16.30
2019-03-24T09:41:48.708Z,16.10
2019-03-24T09:44:20.099Z,16.10
2019-03-24T09:46:51.488Z,16.00
2019-03-24T09:49:22.868Z,15.90
2019-03-24T09:51:54.250Z,15.70
2019-03-24T09:54:25.654Z,15.70
2019-03-24T09:56:57.028Z,15.90
2019-03-24T09:59:28.423Z,15.90
2019-03-24T10:01:59.801Z,16.00
2019-03-24T10:04:31.168Z,15.90
2019-03-24T10:07:02.554Z,15.80
2019-03-24T10:09:33.984Z,15.80
2019-03-24T10:12:05.400Z,15.80
2019-03-24T10:14:36.829Z,15.70
2019-03-24T10:17:08.207Z,15.40
2019-03-24T10:19:40.655Z,15.30
2019-03-24T10:22:12.072Z,15.10
2019-03-24T10:24:43.456Z,14.90
2019-03-24T10:27:14.867Z,14.80
2019-03-24T10:29:46.272Z,14.70
2019-03-24T10:32:17.630Z,14.70
2019-03-24T10:34:49.017Z,14.70
2019-03-24T10:37:20.406Z,14.60
2019-03-24T10:39:51.822Z,14.60
2019-03-24T10:42:23.164Z,14.50
2019-03-24T10:44:54.637Z,14.40
2019-03-24T10:47:26.029Z,14.40
2019-03-24T10:49:57.465Z,14.30
2019-03-24T10:52:30.604Z,14.30
2019-03-24T10:55:01.942Z,14.30
2019-03-24T10:57:34.604Z,14.30
2019-03-24T11:00:07.448Z,14.20
2019-03-24T11:02:38.956Z,14.20
2019-03-24T11:05:12.178Z,14.10
2019-03-24T11:07:43.573Z,14.10
2019-03-24T11:10:16.151Z,14.10
2019-03-24T11:12:48.252Z,14.10
2019-03-24T11:15:19.667Z,14.10
2019-03-24T11:17:57.054Z,14.00
2019-03-24T11:20:33.522Z,13.90
2019-03-24T11:23:06.532Z,13.80
2019-03-24T11:25:41.233Z,13.70
2019-03-24T11:28:12.711Z,13.60
2019-03-24T11:30:46.729Z,13.50
2019-03-24T11:33:18.132Z,13.50
2019-03-24T11:35:49.685Z,13.50
2019-03-24T11:38:22.793Z,13.40
2019-03-24T11:40:56.692Z,13.30
2019-03-24T11:43:28.144Z,13.40
2019-03-24T11:45:59.550Z,13.50
2019-03-24T11:48:31.072Z,13.50
2019-03-24T11:51:02.494Z,13.40
2019-03-24T11:53:33.908Z,13.30
2019-03-24T11:56:05.713Z,13.20
2019-03-24T11:58:37.120Z,13.10
2019-03-24T12:01:14.821Z,13.10
2019-03-24T12:03:47.899Z,13.00
2019-03-24T12:06:19.735Z,12.90
2019-03-24T12:08:51.241Z,12.90
2019-03-24T12:11:22.661Z,13.00
2019-03-24T12:13:54.142Z,13.00
2019-03-24T12:16:25.571Z,13.00
2019-03-24T12:18:56.995Z,12.90
2019-03-24T12:21:28.413Z,12.90
2019-03-24T12:23:59.837Z,12.90
2019-03-24T12:26:31.260Z,12.70
2019-03-24T12:29:02.682Z,12.70
2019-03-24T12:31:35.149Z,12.70
2019-03-24T12:34:09.477Z,12.60
2019-03-24T12:36:40.884Z,12.40
2019-03-24T12:39:12.283Z,12.30
2019-03-24T12:41:43.753Z,12.20
2019-03-24T12:44:15.176Z,12.00
2019-03-24T12:46:50.122Z,12.00
2019-03-24T12:49:21.281Z,11.90
2019-03-24T12:51:52.675Z,11.80
2019-03-24T12:54:25.511Z,11.70
2019-03-24T12:56:57.086Z,11.70
2019-03-24T12:59:28.454Z,11.70
2019-03-24T13:01:59.917Z,11.80
2019-03-24T13:04:31.333Z,11.70
2019-03-24T13:07:02.775Z,11.90
2019-03-24T13:09:34.208Z,11.70
2019-03-24T13:12:05.845Z,11.60
2019-03-24T13:14:37.269Z,11.50
2019-03-24T13:17:08.693Z,11.40
2019-03-24T13:19:40.110Z,11.50
2019-03-24T13:22:11.483Z,11.50
2019-03-24T13:24:42.899Z,11.50
2019-03-24T13:27:14.542Z,11.60
2019-03-24T13:29:45.948Z,11.70
2019-03-24T13:32:18.634Z,11.70
2019-03-24T13:34:50.037Z,11.50
2019-03-24T13:37:21.585Z,11.50
2019-03-24T13:39:53.028Z,11.40
2019-03-24T13:42:24.459Z,11.50
2019-03-24T13:44:55.853Z,11.40
2019-03-24T15:09:24.463Z,10.80
2019-03-24T15:12:13.963Z,10.80
2019-03-24T15:14:45.363Z,10.80
2019-03-24T15:17:16.791Z,10.70
2019-03-24T15:19:48.185Z,10.60
2019-03-24T15:22:19.647Z,10.60
2019-03-24T15:24:51.036Z,10.50
2019-03-24T15:27:22.528Z,10.60
2019-03-24T15:29:54.202Z,10.60
2019-03-24T15:32:25.912Z,10.50
2019-03-24T15:34:57.336Z,10.50
2019-03-24T15:37:28.824Z,10.50
2019-03-24T15:40:00.426Z,10.50
2019-03-24T15:42:31.840Z,10.50
2019-03-24T15:45:03.324Z,10.50
2019-03-24T15:47:34.816Z,10.40
2019-03-24T15:50:06.852Z,10.40
2019-03-24T15:52:38.482Z,10.30
2019-03-24T15:55:09.940Z,10.30
2019-03-24T15:57:41.344Z,10.20
2019-03-24T16:00:15.488Z,9.90
2019-03-24T16:02:46.948Z,10.00
2019-03-24T16:05:18.312Z,10.10
2019-03-24T16:07:49.872Z,10.20
2019-03-24T16:10:22.090Z,9.90
2019-03-24T16:12:53.531Z,10.00
2019-03-24T16:15:24.962Z,9.90
2019-03-24T16:17:56.409Z,10.10
2019-03-24T16:20:29.684Z,10.00
2019-03-24T16:23:01.188Z,9.70
2019-03-24T16:25:32.616Z,9.80
2019-03-24T16:28:04.206Z,10.00
2019-03-24T16:30:36.060Z,9.60
2019-03-24T16:33:07.675Z,9.80
2019-03-24T16:35:39.190Z,9.80
2019-03-24T16:38:10.648Z,9.90
2019-03-24T16:40:42.100Z,10.10
2019-03-24T16:43:13.996Z,10.60
2019-03-24T16:45:47.255Z,10.50
2019-03-24T16:48:18.569Z,10.10
2019-03-24T16:50:50.064Z,10.00
2019-03-24T16:53:23.144Z,10.30
2019-03-24T16:55:54.581Z,10.30
2019-03-24T16:58:25.991Z,10.20
2019-03-24T17:00:57.361Z,10.40
2019-03-24T17:03:28.896Z,10.60
2019-03-24T17:06:02.401Z,10.40
2019-03-24T17:08:33.989Z,10.70
2019-03-24T17:11:05.784Z,10.50
2019-03-24T17:13:37.210Z,10.50
2019-03-24T17:16:10.010Z,10.90
2019-03-24T17:18:42.439Z,10.90
2019-03-24T17:21:14.044Z,11.10
2019-03-24T17:23:45.462Z,11.30
2019-03-24T17:26:16.883Z,11.50
2019-03-24T17:28:48.289Z,11.30
2019-03-24T17:31:19.725Z,11.20
2019-03-24T17:33:53.272Z,10.80
2019-03-24T17:36:24.709Z,10.90
2019-03-24T17:38:56.212Z,10.90
2019-03-24T17:41:28.028Z,11.10
2019-03-24T17:44:03.351Z,11.40
2019-03-24T17:46:32.553Z,11.30
2019-03-24T17:49:04.189Z,11.10
2019-03-24T17:51:35.642Z,11.00
2019-03-24T17:54:07.448Z,11.00
2019-03-24T17:56:38.848Z,11.00
2019-03-24T17:59:10.322Z,10.60
2019-03-24T18:01:42.134Z,10.80
2019-03-24T18:04:13.545Z,10.50
2019-03-24T18:06:48.329Z,10.30
2019-03-24T18:09:19.768Z,10.80
2019-03-24T18:11:51.197Z,10.70
2019-03-24T18:14:22.629Z,10.80
2019-03-24T18:16:54.204Z,10.50
2019-03-24T18:19:25.729Z,10.70
2019-03-24T18:21:58.401Z,10.60
2019-03-24T18:24:31.152Z,10.30
2019-03-24T18:27:02.597Z,10.10
2019-03-24T18:29:34.216Z,10.60
2019-03-24T18:32:06.285Z,10.80
2019-03-24T18:34:37.705Z,10.30
2019-03-24T18:37:10.305Z,10.70
2019-03-24T18:39:41.776Z,10.70
2019-03-24T18:42:14.834Z,10.80
2019-03-24T18:44:47.778Z,10.80
2019-03-24T18:47:19.224Z,10.60
2019-03-24T18:49:52.065Z,10.10
2019-03-24T18:52:23.505Z,10.30
2019-03-24T18:54:54.943Z,9.90
2019-03-24T18:57:26.541Z,10.30
2019-03-24T18:59:59.566Z,10.30
2019-03-24T19:02:30.946Z,10.40
2019-03-24T19:05:02.368Z,10.00
2019-03-24T19:07:34.007Z,9.70
2019-03-24T19:10:06.127Z,9.50
2019-03-24T19:12:37.629Z,9.40
2019-03-24T19:15:10.716Z,9.20
2019-03-24T19:17:42.240Z,9.40
2019-03-24T19:20:14.814Z,9.10
2019-03-24T19:22:46.448Z,9.30
2019-03-24T19:25:18.516Z,9.10
2019-03-24T19:27:50.357Z,8.70
2019-03-24T19:30:27.985Z,8.90
2019-03-24T19:33:02.829Z,9.00
2019-03-24T19:35:34.451Z,8.60
2019-03-24T19:38:07.274Z,8.70
2019-03-24T19:40:38.815Z,8.40
2019-03-24T19:43:10.178Z,8.60
2019-03-24T19:45:41.580Z,8.70
2019-03-24T19:48:13.193Z,9.10
2019-03-24T19:50:44.560Z,9.30
2019-03-24T19:53:15.958Z,9.20
2019-03-24T19:55:47.345Z,9.30
2019-03-24T19:58:18.740Z,9.10
2019-03-24T20:00:50.168Z,9.10
2019-03-24T20:03:21.621Z,8.50
2019-03-24T20:05:53.025Z,8.40
2019-03-24T20:08:24.425Z,8.70
2019-03-24T20:10:55.849Z,8.80
2019-03-24T20:13:27.228Z,8.40
2019-03-24T20:15:58.686Z,9.00
2019-03-24T20:18:30.166Z,9.10
2019-03-24T20:21:01.510Z,8.80
2019-03-24T20:23:32.913Z,9.00
2019-03-24T20:26:04.616Z,9.00
2019-03-24T20:28:36.050Z,8.50
2019-03-24T20:31:07.481Z,8.80
2019-03-24T20:33:38.910Z,8.90
2019-03-24T20:36:10.282Z,9.00
2019-03-24T20:38:43.547Z,8.40
2019-03-24T20:41:14.944Z,8.30
2019-03-24T20:43:46.357Z,8.50
2019-03-24T20:46:18.812Z,8.80
2019-03-24T20:48:52.377Z,9.20
2019-03-24T20:51:24.961Z,8.40
2019-03-24T20:53:56.351Z,8.00
2019-03-24T20:56:27.770Z,8.80
2019-03-24T20:59:00.482Z,9.10
2019-03-24T21:01:31.887Z,8.70
2019-03-24T21:04:03.300Z,8.80
2019-03-24T21:06:34.719Z,8.40
2019-03-24T21:09:08.075Z,9.00
2019-03-24T21:11:39.488Z,9.30
2019-03-24T21:14:10.856Z,8.90
2019-03-24T21:16:42.259Z,8.40
2019-03-24T21:19:13.626Z,8.20
2019-03-24T21:21:45.013Z,8.20
2019-03-24T21:24:16.371Z,8.60
2019-03-24T21:26:47.767Z,8.30
2019-03-24T21:29:19.157Z,8.00
2019-03-24T21:31:50.754Z,7.80
2019-03-24T21:34:22.124Z,7.90
2019-03-24T21:36:55.007Z,7.70
2019-03-24T21:39:26.408Z,7.60
2019-03-24T21:41:57.808Z,7.70
2019-03-24T21:44:29.370Z,8.00
2019-03-24T21:47:00.828Z,8.00
2019-03-24T21:49:32.238Z,7.80
2019-03-24T21:52:03.729Z,7.70
2019-03-24T21:54:35.436Z,7.70
2019-03-24T21:57:09.662Z,7.80
2019-03-24T21:59:42.388Z,7.70
2019-03-24T22:02:16.950Z,7.80
2019-03-24T22:04:48.726Z,7.30
2019-03-24T22:07:21.556Z,7.20
2019-03-24T22:09:54.593Z,7.20
2019-03-24T22:12:26.273Z,7.20
2019-03-24T22:14:59.651Z,7.20
2019-03-24T22:17:35.172Z,7.30
2019-03-24T22:20:09.504Z,7.10
2019-03-24T22:22:40.881Z,7.00
2019-03-24T22:25:12.245Z,7.00
2019-03-24T22:27:46.402Z,7.10
2019-03-24T22:30:17.156Z,7.20
2019-03-24T22:32:48.536Z,6.90
2019-03-24T22:35:24.047Z,6.70
2019-03-24T22:38:00.293Z,6.90
2019-03-24T22:40:37.074Z,6.70
2019-03-24T22:43:13.817Z,7.10
2019-03-24T22:45:45.318Z,7.20
2019-03-24T22:48:18.804Z,7.20
2019-03-24T22:50:50.738Z,7.20
2019-03-24T22:53:22.116Z,7.40
2019-03-24T22:55:53.768Z,7.30
2019-03-24T22:58:25.857Z,7.40
2019-03-24T23:00:58.072Z,7.80
2019-03-24T23:03:29.502Z,7.30
2019-03-24T23:06:00.882Z,7.30
2019-03-24T23:08:32.688Z,7.00
2019-03-24T23:11:04.117Z,7.30
2019-03-24T23:13:35.502Z,7.00
2019-03-24T23:16:06.995Z,7.20
2019-03-24T23:18:38.407Z,7.10
2019-03-24T23:21:10.140Z,6.70
2019-03-24T23:23:41.583Z,6.80
2019-03-24T23:26:13.009Z,6.40
2019-03-24T23:28:44.462Z,6.80
2019-03-24T23:31:15.812Z,6.80
2019-03-24T23:33:47.208Z,6.90
2019-03-24T23:36:18.562Z,6.70
2019-03-24T23:38:50.030Z,6.80
2019-03-24T23:41:21.413Z,7.10
2019-03-24T23:43:52.797Z,7.00
2019-03-24T23:46:24.183Z,7.00
2019-03-24T23:48:55.564Z,6.80
2019-03-24T23:51:26.989Z,7.10
2019-03-24T23:53:58.385Z,6.60
2019-03-24T23:56:29.744Z,6.40
2019-03-24T23:59:01.160Z,6.40
